Date,TemperatureHighF,TemperatureAvgF,TemperatureLowF,DewpointHighF,DewpointAvgF,DewpointLowF,HumidityHigh,HumidityAvg,HumidityLow,PressureMaxIn,PressureMinIn,WindSpeedMaxMPH,WindSpeedAvgMPH,GustSpeedMaxMPH,PrecipitationSumIn
2013-2-1,64,47,32,31,22,12,64,39,17,30.29,30.20,8,2,10,0.00
2013-2-2,61,50,37,38,23,15,75,36,20,30.29,30.18,9,3,12,0.00
2013-2-3,57,46,39,41,39,36,91,76,54,30.18,30.02,13,4,14,0.02
2013-2-4,58,45,30,35,30,25,85,59,35,30.14,30.04,13,5,17,0.00
2013-2-5,62,44,29,35,28,23,85,56,32,30.16,30.00,8,3,17,0.00
2013-2-6,58,43,27,26,20,5,72,44,13,30.13,29.92,13,6,22,0.00
2013-2-7,58,37,24,33,22,12,95,60,19,30.21,29.97,15,4,21,0.00
2013-2-8,30,27,24,29,26,23,96,95,94,29.97,29.90,23,11,38,0.00
2013-2-9,31,26,22,30,24,19,96,95,89,30.20,29.96,19,9,29,0.09
2013-2-10,24,21,19,23,19,16,96,92,88,30.20,30.16,8,4,16,0.00
2013-2-11,36,29,18,30,20,9,87,72,58,30.39,30.25,10,4,14,0.04
2013-2-12,44,35,25,16,12,9,64,40,27,30.45,30.35,26,8,26,0.01
2013-2-13,55,42,29,23,17,9,72,38,26,30.34,30.21,15,7,23,0.00
2013-2-14,53,45,39,26,23,21,50,42,34,30.27,30.15,21,8,28,0.00
2013-2-15,50,45,41,22,16,8,43,32,21,30.33,30.18,24,13,36,0.00
2013-2-16,58,46,32,19,10,-8,55,27,7,30.31,30.07,20,6,26,0.00
2013-2-17,54,44,35,29,15,7,65,32,20,30.07,29.95,16,7,23,0.00
2013-2-18,61,41,24,34,15,-1,86,39,18,30.12,29.97,9,4,15,0.00
2013-2-19,39,30,26,31,23,-5,97,82,15,29.97,29.74,15,7,31,0.01
2013-2-20,31,26,22,30,25,21,97,95,92,30.12,29.69,27,9,39,0.15
2013-2-21,34,28,22,32,26,21,96,92,79,30.21,30.09,12,5,22,0.07
2013-2-22,49,33,23,28,21,16,83,63,32,30.31,30.20,21,6,25,0.21
2013-2-23,53,37,22,29,22,17,84,58,29,30.27,30.01,15,6,25,0.00
2013-2-24,38,34,28,25,9,0,71,38,25,30.29,30.00,22,10,34,0.00
2013-2-25,54,40,31,19,10,2,45,29,14,30.33,30.11,12,5,21,0.00
2013-2-26,48,42,35,18,10,-7,41,27,13,30.21,30.03,16,8,23,0.00
2013-2-27,48,40,33,13,8,2,39,27,20,30.38,30.20,18,9,29,0.00
2013-2-28,52,45,38,12,8,2,25,22,18,30.42,30.36,23,10,32,0.00